Data for 09/11/2008

Time Sea-Level Adjusted Pressure Absolute Pressure Temperature Relative Humidity Dew Point   
(mb) (inHg) (mb) (inHg) (C) (F) (%) (C) (F)
00:05 1022 30.18 852 25.16 6.7 44.1 87 4.8 40.6
00:10 1022 30.18 852 25.16 6.6 43.9 88 4.8 40.7
00:15 1022 30.18 852 25.16 6.6 43.9 88 4.8 40.6
00:20 1022 30.18 852 25.16 6.5 43.8 89 4.9 40.8
00:25 1022 30.18 852 25.16 6.4 43.5 89 4.8 40.6
00:30 1022 30.18 852 25.16 6.3 43.4 90 4.7 40.5
00:35 1022 30.18 852 25.16 6.3 43.3 90 4.7 40.5
00:40 1022 30.18 852 25.16 6.3 43.4 90 4.8 40.6
00:45 1022 30.18 852 25.16 6.4 43.4 90 4.8 40.6
00:50 1022 30.18 852 25.16 6.4 43.4 90 4.8 40.7
00:55 1023 30.21 852 25.16 6.3 43.3 90 4.8 40.6
01:00 1023 30.21 852 25.16 6.3 43.4 90 4.7 40.5
01:05 1023 30.21 852 25.16 6.4 43.5 90 4.8 40.7
01:10 1023 30.21 852 25.16 6.3 43.3 90 4.8 40.6
01:15 1023 30.21 852 25.16 6.3 43.4 90 4.8 40.7
01:20 1023 30.21 852 25.16 6.4 43.4 90 4.8 40.6
01:25 1023 30.21 852 25.16 6.3 43.4 90 4.8 40.7
01:30 1023 30.21 852 25.16 6.3 43.4 90 4.8 40.6
01:35 1023 30.21 852 25.16 6.4 43.6 89 4.8 40.6
01:40 1023 30.21 852 25.16 6.4 43.5 89 4.6 40.4
01:45 1023 30.21 852 25.16 6.3 43.4 89 4.6 40.2
01:50 1023 30.21 852 25.16 6.3 43.4 89 4.6 40.3
01:55 1022 30.18 852 25.16 6.3 43.3 89 4.7 40.4
02:00 1022 30.18 852 25.16 6.2 43.2 90 4.8 40.6
02:05 1022 30.18 852 25.16 6.2 43.2 91 4.8 40.6
02:10 1022 30.18 852 25.16 6.2 43.2 90 4.7 40.5
02:15 1022 30.18 852 25.16 6.3 43.3 90 4.8 40.7
02:20 1022 30.18 852 25.16 6.3 43.4 90 4.8 40.7
02:25 1022 30.18 852 25.16 6.2 43.2 91 4.9 40.8
02:30 1022 30.18 852 25.16 6.2 43.2 91 4.9 40.8
02:35 1022 30.18 852 25.16 6.2 43.2 91 4.9 40.7
02:40 1022 30.18 852 25.16 6.2 43.2 91 4.9 40.8
02:45 1022 30.18 852 25.16 6.2 43.1 92 4.9 40.8
02:50 1022 30.18 852 25.16 6.2 43.1 92 4.9 40.9
02:55 1022 30.18 852 25.16 6.2 43.1 91 4.8 40.6
03:00 1022 30.18 852 25.16 6.1 42.9 91 4.6 40.3
03:05 1022 30.18 852 25.16 6.1 42.9 91 4.6 40.3
03:10 1022 30.18 852 25.16 6.1 43 91 4.7 40.5
03:15 1022 30.18 852 25.16 6.1 42.9 90 4.6 40.2
03:20 1022 30.18 852 25.16 6.1 42.9 91 4.7 40.5
03:25 1022 30.18 851 25.13 6.1 42.9 91 4.7 40.4
03:30 1022 30.18 851 25.13 6 42.8 91 4.6 40.4
03:35 1022 30.18 851 25.13 5.9 42.7 89 4.2 39.6
03:40 1022 30.18 851 25.13 6 42.8 89 4.3 39.8
03:45 1022 30.18 851 25.13 6 42.7 90 4.5 40
03:50 1022 30.18 851 25.13 5.9 42.6 90 4.4 39.9
03:55 1022 30.18 851 25.13 5.9 42.7 90 4.5 40
04:00 1022 30.18 851 25.13 6 42.8 90 4.5 40.1
04:05 1022 30.18 851 25.13 6 42.8 90 4.5 40.1
04:10 1022 30.18 852 25.16 6.1 43 90 4.5 40.2
04:15 1022 30.18 852 25.16 6.2 43.2 89 4.5 40.1
04:20 1022 30.18 852 25.16 6.3 43.4 88 4.4 40
04:25 1022 30.18 852 25.16 6.3 43.4 87 4.4 39.9
04:30 1022 30.18 852 25.16 6.3 43.3 87 4.4 39.9
04:35 1022 30.18 852 25.16 6.4 43.4 87 4.4 40
04:40 1022 30.18 852 25.16 6.4 43.6 87 4.5 40
04:45 1023 30.21 852 25.16 6.5 43.6 88 4.6 40.2
04:50 1023 30.21 852 25.16 6.5 43.6 88 4.6 40.3
04:55 1023 30.21 852 25.16 6.5 43.6 87 4.4 39.9
05:00 1023 30.21 852 25.16 6.5 43.7 86 4.3 39.7
05:05 1023 30.21 852 25.16 6.5 43.8 86 4.3 39.8
05:10 1023 30.21 852 25.16 6.5 43.8 86 4.4 40
05:15 1023 30.21 852 25.16 6.5 43.7 86 4.4 39.9
05:20 1023 30.21 852 25.16 6.4 43.6 88 4.5 40.2
05:25 1023 30.21 852 25.16 6.4 43.5 88 4.5 40
05:30 1023 30.21 852 25.16 6.3 43.4 88 4.5 40.2
05:35 1023 30.21 852 25.16 6.3 43.4 89 4.7 40.4
05:40 1023 30.21 852 25.16 6.3 43.3 88 4.5 40.1
05:45 1023 30.21 852 25.16 6.3 43.3 88 4.4 40
05:50 1023 30.21 852 25.16 6.4 43.5 87 4.4 40
05:55 1023 30.21 852 25.16 6.4 43.5 86 4.3 39.7
06:00 1023 30.21 852 25.16 6.4 43.5 86 4.2 39.5
06:05 1023 30.21 852 25.16 6.4 43.5 86 4.3 39.7
06:10 1023 30.21 852 25.16 6.3 43.3 86 4.2 39.5
06:15 1023 30.21 852 25.16 6.1 43.1 87 4.2 39.6
06:20 1023 30.21 852 25.16 6.2 43.2 87 4.1 39.4
06:25 1023 30.21 852 25.16 6.2 43.2 86 4.1 39.4
06:30 1023 30.21 852 25.16 6.2 43.1 86 3.9 39.1
06:35 1023 30.21 852 25.16 6.1 42.9 86 4 39.1
06:40 1023 30.21 852 25.16 6.1 42.9 86 3.9 39
06:45 1023 30.21 852 25.16 6 42.8 87 4 39.1
06:50 1023 30.21 852 25.16 6 42.8 88 4.1 39.4
06:55 1023 30.21 852 25.16 5.9 42.7 88 4 39.3
07:00 1023 30.21 852 25.16 6 42.7 87 4 39.3
07:05 1023 30.21 852 25.16 5.9 42.7 87 4 39.2
07:10 1023 30.21 852 25.16 5.9 42.7 87 4 39.2
07:15 1023 30.21 852 25.16 6 42.8 87 4.1 39.3
07:20 1023 30.21 852 25.16 6.1 43 87 4 39.3
07:25 1023 30.21 852 25.16 6.1 43 87 4.2 39.5
07:30 1023 30.21 852 25.16 6 42.9 86 3.9 39.1
07:35 1023 30.21 852 25.16 6 42.9 87 4 39.2
07:40 1023 30.21 852 25.16 6 42.7 88 4.2 39.5
07:45 1023 30.21 852 25.16 5.9 42.7 88 4 39.3
07:50 1023 30.21 852 25.16 5.9 42.7 91 4.5 40.1
07:55 1023 30.21 853 25.19 5.9 42.7 90 4.4 40
08:00 1023 30.21 853 25.19 6 42.8 90 4.5 40.1
08:05 1023 30.21 853 25.19 6 42.8 91 4.6 40.2
08:10 1023 30.21 853 25.19 6.2 43.1 89 4.5 40
08:15 1023 30.21 853 25.19 6.8 44.3 86 4.7 40.5
08:20 1023 30.21 853 25.19 7.1 44.8 85 4.7 40.5
08:25 1023 30.21 853 25.19 7.7 45.8 82 4.8 40.6
08:30 1023 30.21 853 25.19 8.4 47 78 4.8 40.6
08:35 1023 30.21 853 25.19 9.3 48.7 75 5.1 41.1
08:40 1023 30.21 853 25.19 9.8 49.7 70 4.6 40.2
08:45 1023 30.21 853 25.19 10 50 71 4.9 40.9
08:50 1023 30.21 853 25.19 10 50 72 5.2 41.3
08:55 1023 30.21 853 25.19 9.7 49.5 72 4.9 40.8
09:00 1024 30.24 853 25.19 9.9 49.9 72 5.2 41.3
09:05 1024 30.24 853 25.19 10.4 50.7 67 4.7 40.4
09:10 1024 30.24 853 25.19 9.3 48.8 72 4.7 40.4
09:15 1024 30.24 853 25.19 9 48.1 70 3.9 39
09:20 1024 30.24 853 25.19 9.5 49.1 69 4.2 39.6
09:25 1024 30.24 853 25.19 9.1 48.4 73 4.6 40.2
09:30 1024 30.24 853 25.19 8.4 47 74 4.1 39.4
09:35 1024 30.24 853 25.19 8.6 47.5 73 4.1 39.4
09:40 1024 30.24 853 25.19 8.2 46.8 76 4.2 39.6
09:45 1024 30.24 853 25.19 8.3 46.9 75 4.1 39.3
09:50 1024 30.24 853 25.19 9.3 48.8 68 3.8 38.8
09:55 1024 30.24 853 25.19 10.3 50.5 61 3.2 37.8
10:00 1024 30.24 853 25.19 10.6 51.1 61 3.6 38.4
10:05 1024 30.24 853 25.19 11 51.8 62 4 39.3
10:10 1024 30.24 853 25.19 10.5 50.9 63 3.9 39
10:15 1024 30.24 853 25.19 10 49.9 61 2.9 37.2
10:20 1024 30.24 853 25.19 10.3 50.6 58 2.5 36.5
10:25 1024 30.24 853 25.19 11.4 52.4 55 2.8 37
10:30 1024 30.24 853 25.19 11.8 53.3 56 3.3 37.9
10:35 1024 30.24 853 25.19 11.3 52.3 55 2.7 36.9
10:40 1024 30.24 853 25.19 11.7 53.1 54 2.7 36.8
10:45 1024 30.24 853 25.19 12.5 54.5 52 3 37.4
10:50 1024 30.24 853 25.19 12.9 55.1 56 4.3 39.8
10:55 1024 30.24 853 25.19 11.8 53.2 59 4 39.3
11:00 1024 30.24 853 25.19 11.1 51.9 59 3.5 38.2
11:05 1024 30.24 853 25.19 10.1 50.3 63 3.4 38.2
11:10 1024 30.24 853 25.19 10.1 50.2 62 3.3 37.9
11:15 1024 30.24 853 25.19 10.3 50.5 62 3.4 38.2
11:20 1024 30.24 853 25.19 10.1 50.1 62 3.2 37.8
11:25 1024 30.24 853 25.19 10.2 50.3 61 3.1 37.6
11:30 1024 30.24 853 25.19 10.1 50.2 62 3.1 37.6
11:35 1024 30.24 853 25.19 10.4 50.8 59 2.7 36.8
11:40 1024 30.24 853 25.19 10.6 51.1 58 2.8 37
11:45 1024 30.24 853 25.19 11.7 53.1 54 2.8 37
11:50 1023 30.21 853 25.19 12.1 53.8 53 2.8 37.1
11:55 1023 30.21 853 25.19 11.6 52.9 54 2.7 36.9
12:00 1023 30.21 853 25.19 12.3 54.1 52 2.9 37.2
12:05 1023 30.21 852 25.16 12 53.7 54 3.1 37.6
12:10 1023 30.21 852 25.16 11.7 53 55 3.1 37.5
12:15 1023 30.21 852 25.16 11.3 52.3 56 3 37.4
12:20 1023 30.21 852 25.16 12 53.6 53 2.9 37.1
12:25 1023 30.21 852 25.16 12.4 54.2 52 2.7 36.9
12:30 1023 30.21 852 25.16 12.8 55 51 3 37.5
12:35 1023 30.21 852 25.16 12.7 54.8 52 3.1 37.7
12:40 1023 30.21 852 25.16 12.6 54.7 51 2.7 36.9
12:45 1023 30.21 852 25.16 13.4 56.1 49 3 37.5
12:50 1023 30.21 852 25.16 13.3 56 50 3.1 37.6
12:55 1023 30.21 852 25.16 13.1 55.6 50 3 37.3
13:00 1023 30.21 852 25.16 13 55.3 50 3 37.4
13:05 1023 30.21 852 25.16 12.3 54.2 52 2.9 37.1
13:10 1023 30.21 852 25.16 13.1 55.6 49 2.8 37
13:15 1023 30.21 852 25.16 14.4 58 47 3.4 38.1
13:20 1022 30.18 852 25.16 14.7 58.5 46 3.4 38.1
13:25 1022 30.18 852 25.16 14.8 58.6 45 3 37.3
13:30 1022 30.18 852 25.16 15.6 60 44 3.3 38
13:35 1022 30.18 852 25.16 14.6 58.3 44 2.5 36.5
13:40 1022 30.18 852 25.16 15.2 59.4 44 3.1 37.5
13:45 1022 30.18 851 25.13 14.8 58.6 44 2.7 36.9
13:50 1022 30.18 851 25.13 14.4 57.9 43 2.1 35.8
13:55 1022 30.18 851 25.13 14.6 58.4 44 2.7 36.9
14:00 1022 30.18 851 25.13 15.1 59.2 42 2.4 36.2
14:05 1022 30.18 851 25.13 14.3 57.7 48 3.4 38.1
14:10 1022 30.18 851 25.13 14 57.2 45 2.3 36.1
14:15 1022 30.18 851 25.13 14.3 57.8 43 2.2 35.9
14:20 1022 30.18 851 25.13 15 58.9 42 2.2 35.9
14:25 1022 30.18 851 25.13 16.1 60.9 40 2.5 36.4
14:30 1022 30.18 851 25.13 16 60.7 44 3.9 39
14:35 1022 30.18 851 25.13 16 60.8 40 2.4 36.3
14:40 1022 30.18 851 25.13 16.7 62.1 40 3.2 37.8
14:45 1022 30.18 851 25.13 16.8 62.2 37 1.9 35.5
14:50 1022 30.18 851 25.13 16.7 62 39 2.7 36.9
14:55 1022 30.18 851 25.13 16.7 62.1 38 2.3 36.2
15:00 1022 30.18 851 25.13 16.7 62 38 2.5 36.5
15:05 1022 30.18 851 25.13 16 60.7 39 2.1 35.8
15:10 1022 30.18 851 25.13 15.8 60.5 42 3.1 37.5
15:15 1022 30.18 851 25.13 16.6 61.8 36 1.7 35.1
15:20 1021 30.15 851 25.13 17.9 64.1 34 1.8 35.3
15:25 1021 30.15 851 25.13 17.3 63.1 37 2.7 36.9
15:30 1021 30.15 851 25.13 16.7 62.1 37 1.9 35.5
15:35 1021 30.15 851 25.13 16.8 62.2 35 1.5 34.7
15:40 1021 30.15 850 25.1 17.7 63.8 34 1.7 35.1
15:45 1021 30.15 850 25.1 17.7 63.9 33 1.5 34.7
15:50 1021 30.15 850 25.1 18.2 64.7 33 1.7 35.1
15:55 1021 30.15 850 25.1 17.8 64.1 33 1.7 35
16:00 1021 30.15 850 25.1 18.1 64.5 34 2 35.6
16:05 1021 30.15 850 25.1 18 64.3 34 2 35.7
16:10 1021 30.15 850 25.1 17.5 63.4 35 2.1 35.7
16:15 1021 30.15 850 25.1 17.8 64.1 33 1.4 34.5
16:20 1021 30.15 850 25.1 17.9 64.2 35 2.5 36.5
16:25 1021 30.15 850 25.1 17 62.6 37 2.3 36.2
16:30 1021 30.15 850 25.1 16.7 62.1 36 1.7 35.1
16:35 1021 30.15 850 25.1 17.3 63.1 36 2.4 36.3
16:40 1021 30.15 850 25.1 17.7 63.9 34 1.6 35
16:45 1021 30.15 850 25.1 18.2 64.8 33 1.7 35
16:50 1021 30.15 850 25.1 18.3 64.9 33 1.7 35.1
16:55 1020 30.12 850 25.1 18.4 65.1 33 1.8 35.2
17:00 1020 30.12 850 25.1 18.5 65.4 33 2.1 35.8
17:05 1020 30.12 850 25.1 18.5 65.2 35 2.9 37.3
17:10 1020 30.12 850 25.1 17 62.7 35 1.7 35
17:15 1020 30.12 849 25.07 17.2 63 34 1.3 34.4
17:20 1020 30.12 849 25.07 17.6 63.7 36 2.3 36.2
17:25 1020 30.12 849 25.07 17.5 63.6 35 1.9 35.4
17:30 1020 30.12 849 25.07 18.1 64.5 33 1.9 35.3
17:35 1020 30.12 849 25.07 18.1 64.7 34 2.1 35.9
17:40 1020 30.12 849 25.07 18.4 65 34 2.2 36
17:45 1020 30.12 849 25.07 18.7 65.6 32 2 35.5
17:50 1020 30.12 849 25.07 18.6 65.5 33 2.1 35.8
17:55 1020 30.12 849 25.07 18.5 65.3 34 2.3 36.1
18:00 1020 30.12 849 25.07 18.4 65.2 33 2.1 35.7
18:05 1020 30.12 849 25.07 18.5 65.3 33 2.3 36.1
18:10 1020 30.12 849 25.07 18.5 65.3 34 2.5 36.4
18:15 1020 30.12 849 25.07 18.1 64.6 34 2.3 36.1
18:20 1020 30.12 849 25.07 17.4 63.4 36 2.2 35.9
18:25 1020 30.12 849 25.07 16.9 62.5 38 2.5 36.5
18:30 1020 30.12 849 25.07 16.6 61.9 37 2 35.6
18:35 1020 30.12 849 25.07 16.3 61.4 37 1.9 35.4
18:40 1020 30.12 849 25.07 16.4 61.5 38 2.2 36
18:45 1020 30.12 849 25.07 16.4 61.5 38 2.1 35.8
18:50 1020 30.12 849 25.07 16.5 61.6 38 2.2 36
18:55 1020 30.12 849 25.07 16.3 61.3 42 3.4 38.2
19:00 1020 30.12 849 25.07 16.1 60.9 40 2.6 36.7
19:05 1020 30.12 849 25.07 16.1 60.9 40 2.5 36.5
19:10 1020 30.12 849 25.07 16 60.9 42 3.2 37.8
19:15 1020 30.12 849 25.07 15.8 60.4 41 2.7 36.9
19:20 1020 30.12 849 25.07 15.6 60.1 42 2.9 37.2
19:25 1020 30.12 849 25.07 15.3 59.5 47 4 39.3
19:30 1020 30.12 849 25.07 14.9 58.9 47 3.9 39.1
19:35 1020 30.12 849 25.07 14.7 58.4 45 3 37.4
19:40 1020 30.12 849 25.07 14.6 58.3 47 3.6 38.4
19:45 1020 30.12 849 25.07 14.4 58 48 3.7 38.7
19:50 1020 30.12 849 25.07 14.1 57.3 56 5.5 41.8
19:55 1020 30.12 849 25.07 13.3 55.9 61 6 42.7
20:00 1020 30.12 849 25.07 12.6 54.6 64 6.1 42.9
20:05 1020 30.12 849 25.07 12.1 53.8 67 6.1 43
20:10 1020 30.12 849 25.07 11.9 53.4 68 6.2 43.2
20:15 1020 30.12 849 25.07 11.4 52.5 70 6.2 43.1
20:20 1020 30.12 849 25.07 11 51.7 71 5.8 42.5
20:25 1020 30.12 849 25.07 10.8 51.5 71 5.8 42.4
20:30 1020 30.12 849 25.07 10.8 51.4 72 5.9 42.6
20:35 1020 30.12 849 25.07 10.6 51.1 72 5.8 42.5
20:40 1020 30.12 849 25.07 10.4 50.7 73 5.8 42.4
20:45 1020 30.12 849 25.07 10.2 50.4 73 5.7 42.2
20:50 1020 30.12 849 25.07 9.8 49.6 74 5.4 41.8
20:55 1020 30.12 849 25.07 9.5 49.1 74 5.1 41.2
21:00 1020 30.12 849 25.07 9.4 49 74 5.1 41.1
21:05 1020 30.12 849 25.07 9.3 48.8 75 5.2 41.3
21:10 1020 30.12 849 25.07 9.5 49 74 5.1 41.1
21:15 1020 30.12 849 25.07 9.7 49.5 72 5 41
21:20 1020 30.12 849 25.07 9.9 49.8 72 5.1 41.2
21:25 1020 30.12 849 25.07 9.9 49.8 73 5.2 41.4
21:30 1020 30.12 849 25.07 9.8 49.6 73 5.2 41.4
21:35 1020 30.12 849 25.07 9.5 49.1 74 5.2 41.4
21:40 1020 30.12 849 25.07 9.3 48.8 74 4.9 40.9
21:45 1020 30.12 849 25.07 9.3 48.7 74 5 41
21:50 1020 30.12 849 25.07 9.3 48.7 73 4.8 40.6
21:55 1020 30.12 849 25.07 9.5 49 72 4.6 40.3
22:00 1020 30.12 849 25.07 9.7 49.4 71 4.7 40.5
22:05 1020 30.12 849 25.07 9.5 49.1 72 4.7 40.5
22:10 1020 30.12 849 25.07 9.4 48.9 72 4.7 40.4
22:15 1020 30.12 849 25.07 9.3 48.8 72 4.6 40.4
22:20 1020 30.12 849 25.07 9.2 48.5 73 4.7 40.4
22:25 1020 30.12 849 25.07 9 48.2 74 4.6 40.3
22:30 1020 30.12 849 25.07 9 48.1 73 4.4 39.9
22:35 1020 30.12 849 25.07 9.1 48.3 74 4.6 40.3
22:40 1020 30.12 849 25.07 9 48.2 72 4.2 39.6
22:45 1020 30.12 849 25.07 9.2 48.6 72 4.4 40
22:50 1020 30.12 849 25.07 9.2 48.5 71 4.3 39.7
22:55 1020 30.12 849 25.07 9.2 48.5 71 4.3 39.8
23:00 1020 30.12 849 25.07 9 48.3 72 4.3 39.8
23:05 1020 30.12 849 25.07 8.9 48 73 4.3 39.7
23:10 1020 30.12 849 25.07 8.8 47.8 73 4.2 39.6
23:15 1020 30.12 849 25.07 8.6 47.5 73 4.1 39.4
23:20 1020 30.12 849 25.07 8.5 47.3 74 4.1 39.3
23:25 1020 30.12 849 25.07 8.4 47.1 73 3.9 39.1
23:30 1020 30.12 849 25.07 8.4 47.1 73 3.9 39.1
23:35 1020 30.12 849 25.07 8.3 46.9 74 3.8 38.9
23:40 1020 30.12 849 25.07 8.3 46.9 73 3.7 38.6
23:45 1020 30.12 849 25.07 8.4 47.1 72 3.7 38.7
23:50 1020 30.12 849 25.07 8.3 46.9 73 3.7 38.6
23:55 1019 30.09 849 25.07 8 46.4 73 3.5 38.3
24:00 1019 30.09 849 25.07 7.8 46 74 3.5 38.2